Port Angeles, WA

9:07 PM PDT on September 03, 2015 (GMT -0700)
Lake Dawn | | Change Station
CLOSE
Current Station
Personal Weather Station
Location: Port Angeles, WA
Elevation: 1864 ft
Nearby Weather Stations

Elev 1864 ft 48.04 °N, 123.43 °W | Updated 7 minutes ago

Overcast
Overcast
45.9 °F
Feels Like 46 °F
N
0.0
Wind Variable Wind from NW
Gusts 0.7 mph

Today
High -- | Low -- °F
--% Chance of Precip.
Yesterday
High -- | Low -- °F
Precip. -- in
6:34 AM 7:51 PM
Waning Gibbous, 64% visible
Pressure 30.02 in
Visibility 10.0 miles
Clouds Mostly Cloudy 6000 ft
Overcast 9000 ft
Windchill 46 °F
Dew Point 46 °F
Humidity 99%
Rainfall 0.25 in
Snow Depth Not available.
UV 0 out of 12
Pollen .50 out of 12
Air Quality Not available.
Flu Activity Not available.
METAR KCLM 040353Z AUTO 00000KT 10SM BKN060 OVC090 11/10 A3001 RMK AO2 RAE45 SLP164 P0001 T01060100
Pressure 30.02 in
Visibility 10.0 miles
Clouds Mostly Cloudy 6000 ft
Overcast 9000 ft
Windchill 46 °F
Dew Point 46 °F
Humidity 99%
Rainfall 0.25 in
Snow Depth Not available.
UV 0 out of 12
Pollen .50 out of 12
Air Quality Not available.
Flu Activity Not available.
METAR KCLM 040353Z AUTO 00000KT 10SM BKN060 OVC090 11/10 A3001 RMK AO2 RAE45 SLP164 P0001 T01060100

10-Day Weather Forecast

×

Almanac

Astronomy

Sep. 03, 2015 Rise Set
Actual Time
Civil Twilight
Nautical Twilight
Astronomical Twilight
Moon
Length of Visible Light
Length of Day
Tomorrow will be .
, % of the Moon is Illuminated

Today's Extremes

State Highs State Lows

Community

WunderPhotos

Upload Photos

1,852,125 photos uploaded!

WunderBlogs® & News

Nearby

Air Quality

  Air Quality AQ Index Pollutant
Not available.

Snow Depth

Station Depth Elevation

Earthquake Activity

City Distance Mag. Time & Date
Minimum magnitude displayed is 2.5.

Coastal Water Temperatures

Place Temperature

Stations

Nearby Weather Stations

Station Location Temp. Windchill Dew Point Humidity Wind Precip. Elev Updated Type